Time;durP1;ratioP1;P1;durP2;ratioP2;P2;SDS_P1;SDS_P2;PMS_P1;PMS_P2;Temp;Humidity;BMP_temperature;BMP_pressure;BME280_temperature;BME280_humidity;BME280_pressure;Samples;Min_cycle;Max_cycle;Signal;HPM_P1;HPM_P2
2022/10/22 00:00:56;;;;;;;26.33;14.13;;;8.40;99.90;;;;;;4209719;28;20044;-64
2022/10/22 00:02:57;;;;;;;21.80;13.63;;;8.40;99.90;;;;;;4211713;28;20108;-62
2022/10/22 00:04:58;;;;;;;26.83;12.70;;;8.30;99.90;;;;;;4208231;28;20040;-63
2022/10/22 00:06:59;;;;;;;27.00;12.77;;;8.30;99.90;;;;;;4211995;28;20483;-62
2022/10/22 00:09:01;;;;;;;21.50;12.67;;;8.20;99.90;;;;;;4204715;28;20054;-63
2022/10/22 00:11:15;;;;;;;24.90;12.07;;;8.10;99.90;;;;;;4200085;28;20036;-63
2022/10/22 00:13:16;;;;;;;23.37;11.83;;;8.10;99.90;;;;;;4209552;28;20048;-63
2022/10/22 00:15:18;;;;;;;26.13;13.77;;;8.00;99.90;;;;;;4211570;28;20542;-64
2022/10/22 00:17:19;;;;;;;24.30;13.63;;;8.00;99.90;;;;;;4210454;28;20435;-63
2022/10/22 00:19:20;;;;;;;23.33;13.03;;;8.00;99.90;;;;;;4211690;28;20446;-64
2022/10/22 00:21:21;;;;;;;24.33;13.10;;;8.00;99.90;;;;;;4209591;28;20085;-63
2022/10/22 00:23:22;;;;;;;26.83;13.60;;;8.00;99.90;;;;;;4210673;28;20040;-64
2022/10/22 00:25:24;;;;;;;25.20;12.93;;;8.00;99.90;;;;;;4209867;28;20032;-63
2022/10/22 00:27:25;;;;;;;25.60;13.33;;;8.00;99.90;;;;;;4208508;28;20668;-63
2022/10/22 00:29:26;;;;;;;32.10;12.73;;;8.00;99.90;;;;;;4210181;28;20474;-63
2022/10/22 00:31:27;;;;;;;26.03;13.23;;;7.90;99.90;;;;;;4210666;28;20036;-63
2022/10/22 00:33:29;;;;;;;20.60;11.83;;;7.90;99.90;;;;;;4210389;28;20036;-64
2022/10/22 00:35:31;;;;;;;20.83;12.77;;;7.90;99.90;;;;;;4209847;28;20048;-64
2022/10/22 00:37:32;;;;;;;24.67;12.70;;;7.90;99.90;;;;;;4195308;28;20451;-65
2022/10/22 00:39:33;;;;;;;26.23;13.27;;;7.80;99.90;;;;;;4192956;28;20098;-62
2022/10/22 00:41:34;;;;;;;24.13;12.53;;;7.80;99.90;;;;;;4204665;28;20032;-63
2022/10/22 00:44:00;;;;;;;25.07;12.07;;;7.80;99.90;;;;;;4209350;28;20040;-64
2022/10/22 00:46:01;;;;;;;23.53;11.27;;;7.80;99.90;;;;;;4211060;28;20028;-64
2022/10/22 00:48:13;;;;;;;28.30;13.27;;;7.80;99.90;;;;;;4209254;28;20484;-63
2022/10/22 00:50:30;;;;;;;23.27;12.93;;;7.80;99.90;;;;;;4211319;28;20442;-63
2022/10/22 00:52:31;;;;;;;20.93;12.53;;;7.70;99.90;;;;;;4190041;28;20072;-63
2022/10/22 00:54:33;;;;;;;24.53;12.30;;;7.80;99.90;;;;;;4205467;28;20365;-63
2022/10/22 00:56:34;;;;;;;21.80;12.53;;;7.80;99.90;;;;;;4209405;28;20437;-63
2022/10/22 00:58:42;;;;;;;22.70;12.60;;;7.70;99.90;;;;;;4211264;28;20085;-63
2022/10/22 01:00:44;;;;;;;22.63;13.03;;;7.70;99.90;;;;;;4210004;28;20060;-63
2022/10/22 01:02:47;;;;;;;26.87;14.20;;;7.70;99.90;;;;;;4202970;28;20479;-64
2022/10/22 01:04:48;;;;;;;23.17;12.93;;;7.70;99.90;;;;;;4209386;28;20085;-64
2022/10/22 01:06:50;;;;;;;21.73;13.20;;;7.80;99.90;;;;;;4211340;28;20461;-65
2022/10/22 01:09:13;;;;;;;23.77;12.83;;;7.70;99.90;;;;;;4210362;28;20024;-64
2022/10/22 01:11:42;;;;;;;24.90;12.67;;;7.70;99.90;;;;;;4210861;28;20157;-64
2022/10/22 01:14:13;;;;;;;28.83;13.07;;;7.60;99.90;;;;;;4209227;28;20032;-63
2022/10/22 01:16:40;;;;;;;23.97;13.97;;;7.60;99.90;;;;;;4208407;28;20040;-63
2022/10/22 01:18:57;;;;;;;26.30;13.17;;;7.60;99.90;;;;;;4192525;28;20044;-64
2022/10/22 01:21:24;;;;;;;22.00;12.17;;;7.60;99.90;;;;;;4205705;28;20032;-64
2022/10/22 01:23:43;;;;;;;24.33;13.70;;;7.50;99.90;;;;;;4210500;28;20631;-64
2022/10/22 01:25:55;;;;;;;27.30;13.83;;;7.50;99.90;;;;;;4200032;28;20041;-63
2022/10/22 01:28:05;;;;;;;28.10;13.93;;;7.50;99.90;;;;;;4194831;28;20085;-63
2022/10/22 01:30:08;;;;;;;25.30;13.40;;;7.50;99.90;;;;;;4193656;28;20040;-64
2022/10/22 01:32:20;;;;;;;27.10;14.30;;;7.50;99.90;;;;;;4193690;28;20028;-64
2022/10/22 01:34:23;;;;;;;23.03;12.20;;;7.50;99.90;;;;;;4195635;28;20037;-63
2022/10/22 01:36:24;;;;;;;25.33;14.17;;;7.50;99.90;;;;;;4206619;28;20048;-64
2022/10/22 01:38:26;;;;;;;29.80;14.77;;;7.50;99.90;;;;;;4214119;28;20541;-63
2022/10/22 01:40:27;;;;;;;34.90;16.17;;;7.50;99.90;;;;;;4212934;28;20125;-64
2022/10/22 01:42:29;;;;;;;29.93;16.60;;;7.50;99.90;;;;;;4202211;28;20032;-64
2022/10/22 01:44:32;;;;;;;33.47;15.53;;;7.40;99.90;;;;;;4196002;28;20037;-63
2022/10/22 01:46:34;;;;;;;33.67;15.97;;;7.50;99.90;;;;;;4196248;28;20558;-64
2022/10/22 01:48:47;;;;;;;29.33;16.20;;;7.40;99.90;;;;;;4195802;28;20098;-64
2022/10/22 01:51:10;;;;;;;33.63;15.77;;;7.50;99.90;;;;;;4197026;28;20078;-64
2022/10/22 01:53:29;;;;;;;32.43;16.13;;;7.40;99.90;;;;;;4195900;28;20054;-63
2022/10/22 01:56:10;;;;;;;32.73;15.67;;;7.40;99.90;;;;;;4200986;28;20102;-63
2022/10/22 01:58:23;;;;;;;32.20;14.83;;;7.40;99.90;;;;;;4149206;28;20056;-64
2022/10/22 02:00:24;;;;;;;35.37;15.83;;;7.30;99.90;;;;;;4211681;28;20442;-63
2022/10/22 02:02:28;;;;;;;27.40;14.70;;;7.30;99.90;;;;;;4213030;28;20541;-64
2022/10/22 02:04:45;;;;;;;27.57;12.80;;;7.30;99.90;;;;;;4213049;28;20028;-63
2022/10/22 02:06:48;;;;;;;32.57;15.93;;;7.30;99.90;;;;;;4212986;28;20020;-64
2022/10/22 02:08:51;;;;;;;31.27;15.53;;;7.30;99.90;;;;;;4212857;28;20090;-65
2022/10/22 02:10:54;;;;;;;34.70;15.87;;;7.30;99.90;;;;;;4212618;28;20074;-65
2022/10/22 02:12:57;;;;;;;24.77;13.43;;;7.30;99.90;;;;;;4212886;28;20414;-66
2022/10/22 02:15:01;;;;;;;27.07;14.17;;;7.30;99.90;;;;;;4212260;28;20024;-64
2022/10/22 02:17:06;;;;;;;28.17;13.73;;;7.20;99.90;;;;;;4212448;28;20110;-64
2022/10/22 02:19:18;;;;;;;23.73;14.27;;;7.20;99.90;;;;;;4211511;28;20469;-64
2022/10/22 02:21:20;;;;;;;26.23;14.33;;;7.20;99.90;;;;;;4213313;28;20024;-63
2022/10/22 02:23:22;;;;;;;24.17;13.97;;;7.10;99.90;;;;;;4212236;28;20020;-64
2022/10/22 02:25:28;;;;;;;21.80;12.23;;;7.10;99.90;;;;;;4205986;28;20029;-65
2022/10/22 02:27:43;;;;;;;23.40;13.73;;;7.10;99.90;;;;;;4196185;28;20553;-65
2022/10/22 02:30:02;;;;;;;22.03;12.50;;;7.10;99.90;;;;;;4195820;28;20037;-64
2022/10/22 02:32:08;;;;;;;24.47;12.80;;;7.10;99.90;;;;;;4195274;28;20034;-64
2022/10/22 02:34:14;;;;;;;22.97;12.30;;;7.10;99.90;;;;;;4196438;28;20468;-64
2022/10/22 02:36:17;;;;;;;23.60;13.07;;;7.10;99.90;;;;;;4194477;28;20562;-64
2022/10/22 02:38:19;;;;;;;23.97;12.10;;;7.00;99.90;;;;;;4196888;28;20098;-63
2022/10/22 02:40:20;;;;;;;23.67;12.33;;;7.00;99.90;;;;;;4195252;28;20036;-65
2022/10/22 02:42:27;;;;;;;20.97;11.73;;;7.10;99.90;;;;;;4203533;28;20067;-65
2022/10/22 02:44:28;;;;;;;19.33;11.33;;;7.10;99.90;;;;;;4210875;28;20025;-65
2022/10/22 02:46:29;;;;;;;20.03;11.30;;;7.10;99.90;;;;;;4209443;28;20476;-66
2022/10/22 02:48:30;;;;;;;21.67;11.37;;;7.20;99.90;;;;;;4204072;28;20472;-65
2022/10/22 02:50:31;;;;;;;22.80;12.17;;;7.20;99.90;;;;;;4212294;28;20036;-65
2022/10/22 02:52:32;;;;;;;28.47;12.60;;;7.20;99.90;;;;;;4211680;28;20253;-65
2022/10/22 02:54:33;;;;;;;26.07;13.57;;;7.20;99.90;;;;;;4212422;28;20028;-65
2022/10/22 02:56:35;;;;;;;29.57;13.80;;;7.20;99.90;;;;;;4204781;28;20463;-65
2022/10/22 02:58:36;;;;;;;23.30;13.53;;;7.20;99.90;;;;;;4211861;28;20061;-64
2022/10/22 03:00:37;;;;;;;25.17;13.40;;;7.10;99.90;;;;;;4211241;28;20123;-64
2022/10/22 03:02:38;;;;;;;25.23;13.23;;;7.10;99.90;;;;;;4199059;28;20492;-64
2022/10/22 03:04:39;;;;;;;21.67;13.57;;;7.00;99.90;;;;;;4195987;28;20078;-64
2022/10/22 03:06:42;;;;;;;25.20;12.93;;;7.00;99.90;;;;;;4194313;28;20036;-65
2022/10/22 03:08:44;;;;;;;30.07;15.50;;;7.00;99.90;;;;;;4195285;28;20037;-64
2022/10/22 03:10:45;;;;;;;42.30;17.87;;;7.00;99.90;;;;;;4195055;28;20045;-65
2022/10/22 03:12:47;;;;;;;34.43;17.97;;;6.90;99.90;;;;;;4194778;28;20156;-65
2022/10/22 03:14:48;;;;;;;33.47;17.30;;;6.80;99.90;;;;;;4194499;28;20079;-66
2022/10/22 03:16:49;;;;;;;32.00;17.87;;;6.80;99.90;;;;;;4205083;28;20066;-64
2022/10/22 03:18:50;;;;;;;35.63;18.00;;;6.80;99.90;;;;;;4196824;28;20094;-65
2022/10/22 03:21:11;;;;;;;32.47;17.97;;;6.80;99.90;;;;;;4194958;28;20292;-65
2022/10/22 03:23:15;;;;;;;37.87;18.83;;;6.80;99.90;;;;;;4176008;28;20130;-64
2022/10/22 03:25:21;;;;;;;40.70;19.07;;;6.80;99.90;;;;;;4195500;28;20527;-65
2022/10/22 03:27:23;;;;;;;34.90;18.50;;;6.80;99.90;;;;;;4195293;28;20032;-65
2022/10/22 03:29:26;;;;;;;36.23;17.33;;;6.80;99.90;;;;;;4195478;28;20036;-66
2022/10/22 03:31:27;;;;;;;35.43;17.80;;;6.80;99.90;;;;;;4193269;28;20040;-65
2022/10/22 03:33:28;;;;;;;36.27;17.53;;;6.80;99.90;;;;;;4208931;28;20028;-65
2022/10/22 03:35:30;;;;;;;40.87;19.10;;;6.80;99.90;;;;;;4211280;28;20841;-64
2022/10/22 03:37:33;;;;;;;37.17;18.23;;;6.80;99.90;;;;;;4201090;28;20082;-64
2022/10/22 03:39:37;;;;;;;32.57;16.23;;;6.70;99.90;;;;;;4195192;28;20028;-65
2022/10/22 03:41:38;;;;;;;31.57;16.93;;;6.70;99.90;;;;;;4194397;28;20419;-64
2022/10/22 03:43:40;;;;;;;37.07;17.73;;;6.70;99.90;;;;;;4197244;28;20028;-66
2022/10/22 03:45:41;;;;;;;32.97;16.73;;;6.70;99.90;;;;;;4199222;28;20493;-64
2022/10/22 03:47:42;;;;;;;38.53;17.43;;;6.80;99.90;;;;;;4195105;28;20081;-65
2022/10/22 03:49:43;;;;;;;34.50;16.77;;;6.80;99.90;;;;;;4193731;28;20040;-65
2022/10/22 03:51:44;;;;;;;39.30;17.43;;;6.80;99.90;;;;;;4206812;28;20044;-65
2022/10/22 03:53:45;;;;;;;30.17;15.33;;;6.70;99.90;;;;;;4209936;28;20537;-65
2022/10/22 03:55:46;;;;;;;36.97;16.27;;;6.70;99.90;;;;;;4210738;28;20617;-65
2022/10/22 03:57:47;;;;;;;30.67;15.53;;;6.70;99.90;;;;;;4196397;28;20032;-65
2022/10/22 03:59:50;;;;;;;31.13;16.70;;;6.60;99.90;;;;;;4194095;28;20044;-66
2022/10/22 04:01:51;;;;;;;32.50;16.03;;;6.50;99.90;;;;;;4193732;28;20024;-65
2022/10/22 04:03:53;;;;;;;41.60;16.80;;;6.50;99.90;;;;;;4194787;28;20028;-66
2022/10/22 04:05:59;;;;;;;28.63;15.87;;;6.50;99.90;;;;;;4193172;28;20389;-63
2022/10/22 04:08:00;;;;;;;32.00;15.53;;;6.40;99.90;;;;;;4194776;28;20028;-66
2022/10/22 04:10:02;;;;;;;30.37;16.20;;;6.40;99.90;;;;;;4194409;28;20024;-65
2022/10/22 04:12:05;;;;;;;35.03;16.53;;;6.40;99.90;;;;;;4195149;28;20078;-64
2022/10/22 04:14:06;;;;;;;30.20;16.30;;;6.40;99.90;;;;;;4199716;28;20051;-64
2022/10/22 04:16:12;;;;;;;36.63;15.70;;;6.30;99.90;;;;;;4193814;28;20040;-65
2022/10/22 04:18:13;;;;;;;30.50;16.17;;;6.30;99.90;;;;;;4201804;28;20496;-65
2022/10/22 04:20:14;;;;;;;33.50;15.53;;;6.30;99.90;;;;;;4206897;28;20074;-64
2022/10/22 04:22:15;;;;;;;32.03;16.17;;;6.30;99.90;;;;;;4194294;28;20040;-63
2022/10/22 04:24:16;;;;;;;35.53;17.30;;;6.30;99.90;;;;;;4193539;28;20055;-64
2022/10/22 04:26:19;;;;;;;24.93;14.53;;;6.30;99.90;;;;;;4195690;28;20086;-64
2022/10/22 04:28:20;;;;;;;23.97;13.43;;;6.20;99.90;;;;;;4193223;28;20028;-64
2022/10/22 04:30:22;;;;;;;24.03;12.57;;;6.20;99.90;;;;;;4194222;28;20062;-65
2022/10/22 04:32:24;;;;;;;22.27;12.87;;;6.10;99.90;;;;;;4193125;28;20566;-64
2022/10/22 04:34:29;;;;;;;20.47;10.60;;;6.10;99.90;;;;;;4194769;28;20025;-63
2022/10/22 04:36:30;;;;;;;22.63;12.70;;;6.10;99.90;;;;;;4193326;28;20443;-62
2022/10/22 04:38:31;;;;;;;21.97;11.97;;;6.00;99.90;;;;;;4194212;28;20040;-63
2022/10/22 04:40:32;;;;;;;19.93;11.20;;;6.10;99.90;;;;;;4194293;28;20478;-62
2022/10/22 04:42:33;;;;;;;24.27;11.47;;;6.10;99.90;;;;;;4194172;28;20036;-64
2022/10/22 04:44:34;;;;;;;26.80;13.53;;;6.10;99.90;;;;;;4194003;28;20476;-64
2022/10/22 04:46:35;;;;;;;22.33;11.80;;;6.10;99.90;;;;;;4192709;28;20037;-62
2022/10/22 04:48:38;;;;;;;26.73;13.30;;;6.00;99.90;;;;;;4194214;28;20690;-64
2022/10/22 04:50:39;;;;;;;24.07;14.47;;;6.00;99.90;;;;;;4193378;28;20028;-65
2022/10/22 04:52:40;;;;;;;23.90;13.67;;;5.90;99.90;;;;;;4196476;28;20037;-64
2022/10/22 04:54:42;;;;;;;25.87;12.70;;;6.00;99.90;;;;;;4193451;28;20033;-63
2022/10/22 04:56:43;;;;;;;25.53;13.83;;;6.00;99.90;;;;;;4210195;28;20431;-64
2022/10/22 04:58:44;;;;;;;22.77;13.37;;;6.00;99.90;;;;;;4204043;28;20048;-63
2022/10/22 05:00:45;;;;;;;31.17;14.93;;;6.10;99.90;;;;;;4205398;28;20061;-64
2022/10/22 05:02:49;;;;;;;24.67;13.83;;;6.10;99.90;;;;;;4192360;28;20044;-64
2022/10/22 05:04:51;;;;;;;31.20;14.17;;;6.10;99.90;;;;;;4194727;28;20033;-63
2022/10/22 05:06:52;;;;;;;30.27;14.83;;;6.20;99.90;;;;;;4192382;28;20044;-64
2022/10/22 05:08:59;;;;;;;35.03;17.23;;;6.20;99.90;;;;;;4197181;28;20024;-63
2022/10/22 05:11:00;;;;;;;35.50;20.67;;;6.20;99.90;;;;;;4196129;28;20024;-64
2022/10/22 05:13:01;;;;;;;39.60;19.23;;;6.10;99.90;;;;;;4197041;28;20526;-64
2022/10/22 05:15:03;;;;;;;33.73;19.50;;;6.10;99.90;;;;;;4196255;28;20021;-64
2022/10/22 05:17:04;;;;;;;37.73;18.93;;;6.20;99.90;;;;;;4197425;28;20036;-65
2022/10/22 05:19:06;;;;;;;33.47;17.73;;;6.30;99.90;;;;;;4200865;28;20032;-62
2022/10/22 05:21:12;;;;;;;36.57;18.27;;;6.30;99.90;;;;;;4190914;28;20058;-63
2022/10/22 05:23:13;;;;;;;34.90;18.93;;;6.40;99.90;;;;;;4201800;28;20117;-63
2022/10/22 05:25:14;;;;;;;40.30;18.27;;;6.50;99.90;;;;;;4195798;28;20423;-64
2022/10/22 05:27:16;;;;;;;39.83;19.27;;;6.60;99.90;;;;;;4197021;28;20419;-64
2022/10/22 05:29:17;;;;;;;30.80;16.30;;;6.70;99.90;;;;;;4195262;28;20067;-64
2022/10/22 05:31:19;;;;;;;39.53;17.37;;;6.70;99.90;;;;;;4196327;28;20048;-63
2022/10/22 05:33:22;;;;;;;33.33;16.57;;;6.80;99.90;;;;;;4195172;28;20032;-63
2022/10/22 05:35:23;;;;;;;31.70;17.30;;;6.80;99.90;;;;;;4194875;28;20462;-63
2022/10/22 05:37:24;;;;;;;35.77;16.83;;;6.90;99.90;;;;;;4189591;28;20048;-63
2022/10/22 05:39:25;;;;;;;32.27;17.07;;;6.90;99.90;;;;;;4190307;28;20019;-64
2022/10/22 05:41:27;;;;;;;34.70;17.27;;;6.90;99.90;;;;;;4212756;28;20028;-64
2022/10/22 05:43:28;;;;;;;33.73;17.70;;;7.00;99.90;;;;;;4185447;28;20095;-64
2022/10/22 05:45:30;;;;;;;29.67;16.63;;;7.00;99.90;;;;;;4187755;28;20779;-64
2022/10/22 05:47:31;;;;;;;36.50;16.17;;;7.20;99.90;;;;;;4198167;28;20032;-63
2022/10/22 05:49:32;;;;;;;33.40;16.93;;;7.30;99.90;;;;;;4195126;28;20118;-65
2022/10/22 05:51:35;;;;;;;31.27;16.70;;;7.40;99.90;;;;;;4195600;28;20037;-64
2022/10/22 05:53:40;;;;;;;35.17;16.90;;;7.40;99.90;;;;;;4194912;28;20102;-64
2022/10/22 05:55:41;;;;;;;34.33;16.93;;;7.40;99.90;;;;;;4203290;28;20446;-64
2022/10/22 05:57:42;;;;;;;31.40;16.73;;;7.40;99.90;;;;;;4198084;28;20114;-63
2022/10/22 05:59:43;;;;;;;40.07;17.90;;;7.40;99.90;;;;;;4194437;28;20032;-64
2022/10/22 06:01:44;;;;;;;32.63;16.40;;;7.50;99.90;;;;;;4197980;28;20045;-64
2022/10/22 06:03:46;;;;;;;30.50;16.80;;;7.70;99.90;;;;;;4195927;28;20110;-65
2022/10/22 06:05:47;;;;;;;34.33;16.70;;;7.80;99.90;;;;;;4196100;28;20100;-63
2022/10/22 06:07:48;;;;;;;32.73;15.43;;;8.00;99.90;;;;;;4194030;28;20044;-63
2022/10/22 06:09:50;;;;;;;33.50;16.57;;;8.10;99.90;;;;;;4208350;28;20043;-63
2022/10/22 06:11:51;;;;;;;35.03;17.07;;;8.40;99.90;;;;;;4209854;28;20488;-64
2022/10/22 06:13:52;;;;;;;35.00;16.93;;;8.60;99.90;;;;;;4182445;28;20033;-64
2022/10/22 06:15:53;;;;;;;37.23;16.80;;;9.00;99.90;;;;;;4202530;28;20029;-63
2022/10/22 06:17:55;;;;;;;34.13;15.87;;;9.30;99.90;;;;;;4194200;28;20040;-63
2022/10/22 06:19:56;;;;;;;38.47;17.83;;;9.90;99.90;;;;;;4194228;28;20032;-65
2022/10/22 06:21:57;;;;;;;31.63;15.47;;;10.30;99.90;;;;;;4194503;28;20078;-64
2022/10/22 06:24:00;;;;;;;28.67;15.03;;;10.90;99.90;;;;;;4194623;28;20459;-64
2022/10/22 06:26:02;;;;;;;27.27;16.13;;;11.40;99.90;;;;;;4194210;28;20090;-69
2022/10/22 06:28:03;;;;;;;37.57;17.57;;;11.80;99.90;;;;;;4195493;28;20048;-67
2022/10/22 06:30:04;;;;;;;32.90;16.70;;;11.90;99.90;;;;;;4193316;28;20056;-64
2022/10/22 06:32:06;;;;;;;31.40;17.57;;;12.00;99.90;;;;;;4195099;28;20121;-63
2022/10/22 06:34:11;;;;;;;23.37;13.30;;;12.30;99.90;;;;;;4193395;28;20074;-63
2022/10/22 06:36:22;;;;;;;30.43;15.17;;;12.50;99.90;;;;;;4208735;28;20081;-63
2022/10/22 06:38:23;;;;;;;32.13;17.07;;;12.50;99.90;;;;;;4205130;28;20553;-62
2022/10/22 06:40:24;;;;;;;37.87;18.80;;;12.50;99.90;;;;;;4207192;28;20032;-63
2022/10/22 06:42:26;;;;;;;26.83;14.47;;;12.60;99.90;;;;;;4199814;28;20085;-68
2022/10/22 06:44:27;;;;;;;25.43;15.67;;;12.50;99.90;;;;;;4192532;28;20600;-63
2022/10/22 06:46:30;;;;;;;36.60;16.17;;;12.40;99.90;;;;;;4195383;28;20082;-65
2022/10/22 06:48:32;;;;;;;30.67;14.27;;;12.60;99.90;;;;;;4198460;28;20114;-64
2022/10/22 06:50:33;;;;;;;29.00;13.50;;;12.60;99.90;;;;;;4193987;28;20032;-66
2022/10/22 06:52:35;;;;;;;21.50;12.43;;;12.80;99.90;;;;;;4195054;28;20020;-65
2022/10/22 06:54:36;;;;;;;19.90;12.10;;;13.10;99.90;;;;;;4196968;28;20052;-65
2022/10/22 06:56:37;;;;;;;27.00;12.93;;;13.30;99.90;;;;;;4194493;28;20048;-65
2022/10/22 06:58:38;;;;;;;22.60;11.07;;;13.40;99.90;;;;;;4194073;28;20770;-66
2022/10/22 07:00:39;;;;;;;19.70;11.87;;;13.40;99.90;;;;;;4194264;28;20048;-63
2022/10/22 07:02:40;;;;;;;20.20;10.47;;;13.40;99.90;;;;;;4194994;28;20028;-63
2022/10/22 07:04:42;;;;;;;31.57;17.90;;;13.50;99.90;;;;;;4192408;28;20036;-65
2022/10/22 07:06:43;;;;;;;23.30;10.97;;;13.60;99.90;;;;;;4194500;28;20489;-66
2022/10/22 07:08:44;;;;;;;21.83;13.03;;;13.50;99.90;;;;;;4210034;28;20032;-63
2022/10/22 07:10:45;;;;;;;18.53;10.50;;;13.30;99.90;;;;;;4198964;28;20472;-63
2022/10/22 07:12:46;;;;;;;22.50;11.93;;;13.00;99.90;;;;;;4208316;28;20039;-63
2022/10/22 07:14:48;;;;;;;18.60;11.43;;;12.90;99.90;;;;;;4207877;28;20032;-63
2022/10/22 07:16:50;;;;;;;24.30;12.10;;;12.80;99.90;;;;;;4193203;28;20044;-64
2022/10/22 07:18:51;;;;;;;22.47;11.83;;;13.00;99.90;;;;;;4194964;28;20465;-64
2022/10/22 07:20:52;;;;;;;25.47;11.50;;;13.10;99.90;;;;;;4194885;28;20054;-65
2022/10/22 07:22:53;;;;;;;21.03;11.80;;;12.70;99.90;;;;;;4176418;28;20429;-64
2022/10/22 07:24:54;;;;;;;25.03;11.23;;;12.50;99.90;;;;;;4178623;28;20194;-67
2022/10/22 07:26:55;;;;;;;16.10;10.27;;;12.30;99.90;;;;;;4202195;28;20097;-66
2022/10/22 07:28:57;;;;;;;21.30;10.83;;;12.00;99.90;;;;;;4197545;28;20082;-68
2022/10/22 07:30:59;;;;;;;23.70;11.00;;;12.10;99.90;;;;;;4192963;28;20036;-65
2022/10/22 07:33:00;;;;;;;20.93;10.73;;;12.10;99.90;;;;;;4193658;28;20084;-65
2022/10/22 07:35:01;;;;;;;21.43;11.33;;;12.20;99.90;;;;;;4193341;28;20024;-63
2022/10/22 07:37:03;;;;;;;20.77;11.33;;;12.60;99.90;;;;;;4194505;28;20538;-63
2022/10/22 07:39:04;;;;;;;18.13;11.50;;;12.70;99.90;;;;;;4203707;28;20044;-65
2022/10/22 07:41:05;;;;;;;20.33;11.33;;;12.50;99.90;;;;;;4196542;28;20450;-64
2022/10/22 07:43:06;;;;;;;23.30;12.90;;;12.40;99.90;;;;;;4193583;28;20020;-63
2022/10/22 07:45:08;;;;;;;20.37;12.27;;;12.50;99.90;;;;;;4194610;28;20380;-62
2022/10/22 07:47:09;;;;;;;19.33;11.90;;;12.60;99.90;;;;;;4193517;28;20412;-65
2022/10/22 07:49:10;;;;;;;20.47;12.83;;;12.60;99.90;;;;;;4194496;28;20032;-64
2022/10/22 07:51:11;;;;;;;24.57;13.03;;;12.50;99.90;;;;;;4202398;28;20428;-64
2022/10/22 07:53:12;;;;;;;20.80;12.50;;;12.60;99.90;;;;;;4207979;28;20387;-65
2022/10/22 07:55:13;;;;;;;22.17;11.33;;;12.70;99.90;;;;;;4198047;28;20021;-61
2022/10/22 07:57:15;;;;;;;22.97;11.93;;;12.70;99.90;;;;;;4194442;28;20432;-63
2022/10/22 07:59:16;;;;;;;19.40;11.50;;;12.60;99.90;;;;;;4195029;28;20465;-64
2022/10/22 08:01:17;;;;;;;23.10;11.87;;;12.40;99.90;;;;;;4193877;28;20554;-64
2022/10/22 08:03:18;;;;;;;22.67;11.37;;;12.30;99.90;;;;;;4194275;28;20024;-63
2022/10/22 08:05:19;;;;;;;19.93;11.67;;;12.30;99.90;;;;;;4203259;28;20024;-64
2022/10/22 08:07:20;;;;;;;21.13;12.17;;;12.20;99.90;;;;;;4211019;28;20101;-63
2022/10/22 08:09:21;;;;;;;18.17;11.53;;;12.20;99.90;;;;;;4210488;28;20082;-63
2022/10/22 08:11:23;;;;;;;23.43;11.73;;;12.30;99.90;;;;;;4211125;28;20024;-64
2022/10/22 08:13:25;;;;;;;25.23;14.57;;;12.80;99.90;;;;;;4210032;28;20369;-64
2022/10/22 08:15:26;;;;;;;29.27;15.57;;;13.00;99.90;;;;;;4209523;28;20040;-64
2022/10/22 08:17:27;;;;;;;25.43;13.90;;;12.80;99.90;;;;;;4209200;28;20101;-64
2022/10/22 08:19:31;;;;;;;23.17;14.43;;;12.80;99.90;;;;;;4211228;28;20050;-65
2022/10/22 08:21:32;;;;;;;22.37;14.53;;;12.70;99.90;;;;;;4208597;28;20036;-64
2022/10/22 08:23:33;;;;;;;26.33;13.43;;;12.90;99.90;;;;;;4208135;28;20036;-65
2022/10/22 08:25:35;;;;;;;24.97;15.20;;;12.80;99.90;;;;;;4192345;28;20086;-64
2022/10/22 08:27:36;;;;;;;21.93;13.83;;;12.70;99.90;;;;;;4193967;28;20427;-64
2022/10/22 08:29:37;;;;;;;25.10;12.80;;;12.70;99.90;;;;;;4193368;28;20098;-63
2022/10/22 08:31:39;;;;;;;25.27;12.47;;;12.80;99.90;;;;;;4193571;28;20423;-64
2022/10/22 08:33:41;;;;;;;21.73;12.83;;;12.70;99.90;;;;;;4193140;28;20872;-65
2022/10/22 08:35:47;;;;;;;21.00;12.37;;;12.60;99.90;;;;;;4192528;28;20040;-65
2022/10/22 08:37:48;;;;;;;22.30;12.83;;;12.60;99.90;;;;;;4176087;28;20041;-65
2022/10/22 08:39:49;;;;;;;22.87;11.47;;;12.80;99.90;;;;;;4192854;28;20451;-64
2022/10/22 08:42:17;;;;;;;24.60;11.97;;;12.70;99.90;;;;;;4198680;28;20024;-65
2022/10/22 08:44:49;;;;;;;21.63;12.03;;;12.50;99.90;;;;;;4213120;28;20081;-63
2022/10/22 08:47:25;;;;;;;24.47;12.73;;;12.40;99.90;;;;;;4207369;28;20036;-64
2022/10/22 08:49:36;;;;;;;21.43;11.57;;;12.40;99.90;;;;;;4192489;28;20488;-65
2022/10/22 08:51:39;;;;;;;20.50;11.38;;;12.50;99.90;;;;;;4212366;28;20089;-62
2022/10/22 08:54:18;;;;;;;16.57;10.80;;;12.50;99.90;;;;;;4211561;28;20052;-66
2022/10/22 08:56:22;;;;;;;20.23;12.03;;;12.50;99.90;;;;;;4208123;28;20070;-64
2022/10/22 08:58:54;;;;;;;17.27;11.03;;;12.60;99.90;;;;;;4205613;28;20056;-62
2022/10/22 09:01:09;;;;;;;16.43;10.73;;;12.70;99.90;;;;;;4210614;28;20044;-69
2022/10/22 09:03:35;;;;;;;19.27;10.93;;;12.70;99.90;;;;;;4194136;28;20063;-66
2022/10/22 09:05:57;;;;;;;19.40;12.00;;;12.80;99.90;;;;;;4209155;28;20047;-68
2022/10/22 09:07:58;;;;;;;17.23;11.37;;;12.90;99.90;;;;;;4211908;28;20488;-63
2022/10/22 09:10:00;;;;;;;18.97;12.10;;;13.10;99.90;;;;;;4212254;28;20025;-64
2022/10/22 09:12:06;;;;;;;19.17;11.43;;;13.30;99.90;;;;;;4212206;28;20032;-64
2022/10/22 09:14:14;;;;;;;21.57;12.57;;;13.50;99.90;;;;;;4211397;28;20430;-64
2022/10/22 09:16:21;;;;;;;19.43;10.57;;;13.70;99.90;;;;;;4212945;28;20024;-65
2022/10/22 09:18:28;;;;;;;24.70;12.93;;;13.80;99.90;;;;;;4211476;28;20048;-63
2022/10/22 09:20:58;;;;;;;20.97;11.97;;;13.90;99.90;;;;;;4212778;28;20035;-63
2022/10/22 09:23:21;;;;;;;19.58;9.85;;;14.00;99.90;;;;;;4208027;28;20097;-63
2022/10/22 09:25:27;;;;;;;20.27;10.27;;;14.20;99.90;;;;;;4212335;28;20032;-62
2022/10/22 09:27:30;;;;;;;16.00;9.13;;;14.40;99.90;;;;;;4211184;28;20478;-66
2022/10/22 09:29:33;;;;;;;20.23;10.00;;;14.50;99.90;;;;;;4212385;28;20089;-63
2022/10/22 09:31:34;;;;;;;15.00;9.17;;;14.60;99.90;;;;;;4193048;28;20044;-63
2022/10/22 09:33:35;;;;;;;16.47;9.67;;;14.80;99.90;;;;;;4211654;28;20550;-63
2022/10/22 09:36:02;;;;;;;16.23;9.63;;;14.80;99.90;;;;;;4211441;28;20025;-65
2022/10/22 09:38:07;;;;;;;15.77;9.80;;;14.80;99.90;;;;;;4194518;28;20558;-63
2022/10/22 09:40:13;;;;;;;18.77;9.30;;;14.90;99.90;;;;;;4211602;28;20028;-62
2022/10/22 09:42:17;;;;;;;14.80;9.67;;;14.90;99.90;;;;;;4212062;28;20446;-65
2022/10/22 09:44:19;;;;;;;15.00;8.47;;;14.90;99.90;;;;;;4211421;28;20492;-65
2022/10/22 09:46:24;;;;;;;15.20;8.83;;;14.90;99.90;;;;;;4212295;28;20431;-65
2022/10/22 09:48:31;;;;;;;18.45;9.13;;;14.90;99.90;;;;;;4192610;28;20403;-62
2022/10/22 09:50:43;;;;;;;16.45;9.43;;;14.80;99.90;;;;;;4212038;28;20032;-63
2022/10/22 09:52:44;;;;;;;17.20;10.73;;;14.80;99.90;;;;;;4211100;28;20379;-63
2022/10/22 09:54:45;;;;;;;15.32;9.38;;;14.70;99.90;;;;;;4207329;28;20040;-65
2022/10/22 09:56:51;;;;;;;17.98;9.57;;;14.60;99.90;;;;;;4194279;28;20090;-65
2022/10/22 09:58:55;;;;;;;17.05;9.35;;;14.50;99.90;;;;;;4195119;28;20435;-67
2022/10/22 10:00:59;;;;;;;17.63;9.98;;;14.60;99.90;;;;;;4176497;28;209667;-64
2022/10/22 10:03:00;;;;;;;16.60;10.20;;;14.60;99.90;;;;;;4210162;28;20062;-65
2022/10/22 10:05:02;;;;;;;17.00;10.07;;;14.60;99.90;;;;;;4212041;28;20020;-67
2022/10/22 10:07:18;;;;;;;19.08;9.55;;;14.70;99.90;;;;;;4212815;28;20028;-65
2022/10/22 10:09:23;;;;;;;15.20;8.75;;;14.80;99.90;;;;;;4206547;28;20434;-63
2022/10/22 10:11:48;;;;;;;16.50;8.73;;;15.00;99.90;;;;;;4200365;28;20074;-65
2022/10/22 10:14:07;;;;;;;14.88;9.15;;;15.10;99.90;;;;;;4194258;28;20028;-67
2022/10/22 10:16:42;;;;;;;14.07;8.73;;;15.20;99.90;;;;;;4196194;28;20553;-68
2022/10/22 10:18:49;;;;;;;18.20;9.07;;;15.40;99.90;;;;;;4194974;28;20041;-68
2022/10/22 10:21:13;;;;;;;16.30;10.07;;;15.50;99.90;;;;;;4196261;28;20094;-68
2022/10/22 10:23:20;;;;;;;20.88;10.27;;;15.50;99.90;;;;;;4195013;28;20097;-69
2022/10/22 10:25:45;;;;;;;14.48;8.73;;;15.60;99.90;;;;;;4198203;28;20141;-68
2022/10/22 10:28:03;;;;;;;15.55;9.20;;;15.60;99.90;;;;;;4201273;28;20078;-71
2022/10/22 10:30:19;;;;;;;15.40;8.05;;;15.50;99.90;;;;;;4195470;28;20045;-68
2022/10/22 10:33:01;;;;;;;13.18;8.48;;;15.60;99.90;;;;;;4194800;28;20105;-68
2022/10/22 10:35:33;;;;;;;14.25;8.07;;;15.50;99.90;;;;;;4155816;28;20036;-63
2022/10/22 10:37:39;;;;;;;17.02;9.20;;;15.60;99.90;;;;;;4207795;28;20066;-66
2022/10/22 10:40:10;;;;;;;15.60;8.18;;;15.70;99.90;;;;;;4178535;28;20041;-65